sensor_id;sensor_type;location;lat;lon;timestamp;P1;durP1;ratioP1;P2;durP2;ratioP2
17207;SDS011;8720;48.488;9.202;2022-12-07T00:00:55;9.20;;;6.43;;
17207;SDS011;8720;48.488;9.202;2022-12-07T00:03:31;8.70;;;6.70;;
17207;SDS011;8720;48.488;9.202;2022-12-07T00:05:59;7.90;;;6.47;;
17207;SDS011;8720;48.488;9.202;2022-12-07T00:08:27;9.93;;;7.23;;
17207;SDS011;8720;48.488;9.202;2022-12-07T00:10:59;8.50;;;7.10;;
17207;SDS011;8720;48.488;9.202;2022-12-07T00:13:30;12.47;;;8.37;;
17207;SDS011;8720;48.488;9.202;2022-12-07T00:15:59;10.37;;;7.53;;
17207;SDS011;8720;48.488;9.202;2022-12-07T00:18:28;10.47;;;7.33;;
17207;SDS011;8720;48.488;9.202;2022-12-07T00:20:58;8.60;;;6.73;;
17207;SDS011;8720;48.488;9.202;2022-12-07T00:23:27;9.70;;;6.57;;
17207;SDS011;8720;48.488;9.202;2022-12-07T00:25:55;6.83;;;6.13;;
17207;SDS011;8720;48.488;9.202;2022-12-07T00:28:22;9.33;;;7.30;;
17207;SDS011;8720;48.488;9.202;2022-12-07T00:30:51;7.23;;;6.20;;
17207;SDS011;8720;48.488;9.202;2022-12-07T00:33:18;6.87;;;6.17;;
17207;SDS011;8720;48.488;9.202;2022-12-07T00:35:45;10.00;;;6.87;;
17207;SDS011;8720;48.488;9.202;2022-12-07T00:38:12;6.70;;;5.67;;
17207;SDS011;8720;48.488;9.202;2022-12-07T00:40:39;6.90;;;6.20;;
17207;SDS011;8720;48.488;9.202;2022-12-07T00:43:06;5.93;;;5.33;;
17207;SDS011;8720;48.488;9.202;2022-12-07T00:45:34;8.33;;;6.30;;
17207;SDS011;8720;48.488;9.202;2022-12-07T00:48:02;6.53;;;5.87;;
17207;SDS011;8720;48.488;9.202;2022-12-07T00:50:30;6.30;;;5.70;;
17207;SDS011;8720;48.488;9.202;2022-12-07T00:52:57;6.47;;;5.40;;
17207;SDS011;8720;48.488;9.202;2022-12-07T00:55:24;8.10;;;5.97;;
17207;SDS011;8720;48.488;9.202;2022-12-07T00:57:51;6.47;;;5.77;;
17207;SDS011;8720;48.488;9.202;2022-12-07T01:00:18;7.07;;;6.03;;
17207;SDS011;8720;48.488;9.202;2022-12-07T01:02:46;6.27;;;5.43;;
17207;SDS011;8720;48.488;9.202;2022-12-07T01:05:14;6.27;;;5.67;;
17207;SDS011;8720;48.488;9.202;2022-12-07T01:07:42;7.53;;;5.70;;
17207;SDS011;8720;48.488;9.202;2022-12-07T01:10:09;7.60;;;6.20;;
17207;SDS011;8720;48.488;9.202;2022-12-07T01:12:37;6.30;;;5.70;;
17207;SDS011;8720;48.488;9.202;2022-12-07T01:15:05;6.83;;;6.13;;
17207;SDS011;8720;48.488;9.202;2022-12-07T01:17:34;7.50;;;6.80;;
17207;SDS011;8720;48.488;9.202;2022-12-07T01:20:01;7.20;;;6.27;;
17207;SDS011;8720;48.488;9.202;2022-12-07T01:22:31;11.50;;;6.80;;
17207;SDS011;8720;48.488;9.202;2022-12-07T01:25:03;7.17;;;5.87;;
17207;SDS011;8720;48.488;9.202;2022-12-07T01:27:31;7.87;;;5.67;;
17207;SDS011;8720;48.488;9.202;2022-12-07T01:29:59;9.87;;;7.27;;
17207;SDS011;8720;48.488;9.202;2022-12-07T01:32:26;7.00;;;6.20;;
17207;SDS011;8720;48.488;9.202;2022-12-07T01:34:54;9.97;;;6.80;;
17207;SDS011;8720;48.488;9.202;2022-12-07T01:37:22;7.00;;;6.40;;
17207;SDS011;8720;48.488;9.202;2022-12-07T01:39:51;7.80;;;7.00;;
17207;SDS011;8720;48.488;9.202;2022-12-07T01:42:19;7.13;;;6.43;;
17207;SDS011;8720;48.488;9.202;2022-12-07T01:48:11;7.20;;;6.50;;
17207;SDS011;8720;48.488;9.202;2022-12-07T01:50:45;6.33;;;5.73;;
17207;SDS011;8720;48.488;9.202;2022-12-07T01:53:17;7.40;;;5.87;;
17207;SDS011;8720;48.488;9.202;2022-12-07T01:55:47;8.60;;;6.77;;
17207;SDS011;8720;48.488;9.202;2022-12-07T01:58:19;5.93;;;5.33;;
17207;SDS011;8720;48.488;9.202;2022-12-07T02:00:47;6.23;;;5.60;;
17207;SDS011;8720;48.488;9.202;2022-12-07T02:03:16;7.50;;;6.20;;
17207;SDS011;8720;48.488;9.202;2022-12-07T02:05:50;5.50;;;4.97;;
17207;SDS011;8720;48.488;9.202;2022-12-07T02:08:20;6.40;;;5.70;;
17207;SDS011;8720;48.488;9.202;2022-12-07T02:10:49;6.10;;;5.13;;
17207;SDS011;8720;48.488;9.202;2022-12-07T02:13:17;6.60;;;6.00;;
17207;SDS011;8720;48.488;9.202;2022-12-07T02:15:57;7.00;;;5.43;;
17207;SDS011;8720;48.488;9.202;2022-12-07T02:18:45;6.90;;;6.20;;
17207;SDS011;8720;48.488;9.202;2022-12-07T02:21:26;8.77;;;6.20;;
17207;SDS011;8720;48.488;9.202;2022-12-07T02:24:11;6.10;;;5.50;;
17207;SDS011;8720;48.488;9.202;2022-12-07T02:26:59;5.90;;;5.30;;
17207;SDS011;8720;48.488;9.202;2022-12-07T02:30:01;5.60;;;4.90;;
17207;SDS011;8720;48.488;9.202;2022-12-07T02:32:33;5.33;;;4.80;;
17207;SDS011;8720;48.488;9.202;2022-12-07T02:35:11;5.67;;;5.07;;
17207;SDS011;8720;48.488;9.202;2022-12-07T02:37:48;8.30;;;5.87;;
17207;SDS011;8720;48.488;9.202;2022-12-07T02:40:29;6.03;;;5.20;;
17207;SDS011;8720;48.488;9.202;2022-12-07T02:43:04;6.07;;;5.47;;
17207;SDS011;8720;48.488;9.202;2022-12-07T02:45:40;5.80;;;5.20;;
17207;SDS011;8720;48.488;9.202;2022-12-07T02:48:11;7.53;;;5.70;;
17207;SDS011;8720;48.488;9.202;2022-12-07T02:50:44;5.63;;;5.13;;
17207;SDS011;8720;48.488;9.202;2022-12-07T02:53:27;5.90;;;5.30;;
17207;SDS011;8720;48.488;9.202;2022-12-07T02:55:56;6.17;;;4.77;;
17207;SDS011;8720;48.488;9.202;2022-12-07T02:58:32;5.23;;;4.70;;
17207;SDS011;8720;48.488;9.202;2022-12-07T03:03:54;6.00;;;5.10;;
17207;SDS011;8720;48.488;9.202;2022-12-07T03:06:46;7.50;;;4.80;;
17207;SDS011;8720;48.488;9.202;2022-12-07T03:09:20;6.77;;;5.13;;
17207;SDS011;8720;48.488;9.202;2022-12-07T03:11:59;12.20;;;6.20;;
17207;SDS011;8720;48.488;9.202;2022-12-07T03:14:36;6.07;;;5.20;;
17207;SDS011;8720;48.488;9.202;2022-12-07T03:17:13;5.97;;;5.47;;
17207;SDS011;8720;48.488;9.202;2022-12-07T03:19:49;7.13;;;5.73;;
17207;SDS011;8720;48.488;9.202;2022-12-07T03:22:23;6.83;;;6.00;;
17207;SDS011;8720;48.488;9.202;2022-12-07T03:24:58;7.37;;;6.00;;
17207;SDS011;8720;48.488;9.202;2022-12-07T03:27:31;7.00;;;5.70;;
17207;SDS011;8720;48.488;9.202;2022-12-07T03:30:04;6.57;;;5.73;;
17207;SDS011;8720;48.488;9.202;2022-12-07T03:32:37;8.70;;;7.07;;
17207;SDS011;8720;48.488;9.202;2022-12-07T03:35:11;9.43;;;6.57;;
17207;SDS011;8720;48.488;9.202;2022-12-07T03:37:48;8.70;;;7.17;;
17207;SDS011;8720;48.488;9.202;2022-12-07T03:40:22;10.83;;;7.70;;
17207;SDS011;8720;48.488;9.202;2022-12-07T03:43:00;7.83;;;6.73;;
17207;SDS011;8720;48.488;9.202;2022-12-07T03:45:32;8.47;;;6.63;;
17207;SDS011;8720;48.488;9.202;2022-12-07T03:48:07;10.30;;;7.53;;
17207;SDS011;8720;48.488;9.202;2022-12-07T03:50:49;9.10;;;6.70;;
17207;SDS011;8720;48.488;9.202;2022-12-07T03:53:26;7.50;;;6.00;;
17207;SDS011;8720;48.488;9.202;2022-12-07T03:56:03;7.47;;;5.70;;
17207;SDS011;8720;48.488;9.202;2022-12-07T03:58:34;6.40;;;5.70;;
17207;SDS011;8720;48.488;9.202;2022-12-07T04:01:03;6.93;;;6.10;;
17207;SDS011;8720;48.488;9.202;2022-12-07T04:03:30;8.60;;;6.17;;
17207;SDS011;8720;48.488;9.202;2022-12-07T04:05:59;7.13;;;6.07;;
17207;SDS011;8720;48.488;9.202;2022-12-07T04:08:26;7.47;;;6.37;;
17207;SDS011;8720;48.488;9.202;2022-12-07T04:10:53;7.03;;;6.20;;
17207;SDS011;8720;48.488;9.202;2022-12-07T04:13:21;8.93;;;7.27;;
17207;SDS011;8720;48.488;9.202;2022-12-07T04:15:48;8.53;;;6.70;;
17207;SDS011;8720;48.488;9.202;2022-12-07T04:18:15;7.20;;;6.00;;
17207;SDS011;8720;48.488;9.202;2022-12-07T04:20:42;8.50;;;6.80;;
17207;SDS011;8720;48.488;9.202;2022-12-07T04:23:11;7.37;;;6.57;;
17207;SDS011;8720;48.488;9.202;2022-12-07T04:25:38;8.80;;;7.17;;
17207;SDS011;8720;48.488;9.202;2022-12-07T04:28:05;9.23;;;6.80;;
17207;SDS011;8720;48.488;9.202;2022-12-07T04:30:32;8.80;;;7.13;;
17207;SDS011;8720;48.488;9.202;2022-12-07T04:32:59;7.63;;;6.77;;
17207;SDS011;8720;48.488;9.202;2022-12-07T04:35:26;9.47;;;7.60;;
17207;SDS011;8720;48.488;9.202;2022-12-07T04:37:54;8.97;;;8.07;;
17207;SDS011;8720;48.488;9.202;2022-12-07T04:40:22;10.40;;;8.30;;
17207;SDS011;8720;48.488;9.202;2022-12-07T04:42:49;10.33;;;7.50;;
17207;SDS011;8720;48.488;9.202;2022-12-07T04:45:16;8.20;;;7.00;;
17207;SDS011;8720;48.488;9.202;2022-12-07T04:47:44;7.67;;;6.40;;
17207;SDS011;8720;48.488;9.202;2022-12-07T04:50:11;8.57;;;6.73;;
17207;SDS011;8720;48.488;9.202;2022-12-07T04:52:38;9.63;;;7.90;;
17207;SDS011;8720;48.488;9.202;2022-12-07T04:55:05;10.30;;;7.50;;
17207;SDS011;8720;48.488;9.202;2022-12-07T04:57:35;8.77;;;6.27;;
17207;SDS011;8720;48.488;9.202;2022-12-07T05:00:02;10.20;;;7.77;;
17207;SDS011;8720;48.488;9.202;2022-12-07T05:02:30;8.57;;;6.73;;
17207;SDS011;8720;48.488;9.202;2022-12-07T05:04:57;9.70;;;7.27;;
17207;SDS011;8720;48.488;9.202;2022-12-07T05:07:24;9.47;;;7.27;;
17207;SDS011;8720;48.488;9.202;2022-12-07T05:09:52;9.70;;;7.70;;
17207;SDS011;8720;48.488;9.202;2022-12-07T05:12:19;8.40;;;7.00;;
17207;SDS011;8720;48.488;9.202;2022-12-07T05:14:47;9.53;;;7.10;;
17207;SDS011;8720;48.488;9.202;2022-12-07T05:17:14;9.67;;;7.20;;
17207;SDS011;8720;48.488;9.202;2022-12-07T05:19:42;11.70;;;7.50;;
17207;SDS011;8720;48.488;9.202;2022-12-07T05:22:09;9.60;;;7.33;;
17207;SDS011;8720;48.488;9.202;2022-12-07T05:24:36;7.40;;;6.33;;
17207;SDS011;8720;48.488;9.202;2022-12-07T05:27:03;7.50;;;6.70;;
17207;SDS011;8720;48.488;9.202;2022-12-07T05:29:31;7.73;;;6.50;;
17207;SDS011;8720;48.488;9.202;2022-12-07T05:31:59;10.30;;;7.83;;
17207;SDS011;8720;48.488;9.202;2022-12-07T05:34:26;9.20;;;7.20;;
17207;SDS011;8720;48.488;9.202;2022-12-07T05:36:54;8.60;;;6.83;;
17207;SDS011;8720;48.488;9.202;2022-12-07T05:39:21;7.70;;;6.57;;
17207;SDS011;8720;48.488;9.202;2022-12-07T05:41:48;10.47;;;8.47;;
17207;SDS011;8720;48.488;9.202;2022-12-07T05:44:33;7.53;;;6.23;;
17207;SDS011;8720;48.488;9.202;2022-12-07T05:47:01;7.33;;;6.13;;
17207;SDS011;8720;48.488;9.202;2022-12-07T05:49:29;8.63;;;7.07;;
17207;SDS011;8720;48.488;9.202;2022-12-07T05:51:56;7.77;;;6.37;;
17207;SDS011;8720;48.488;9.202;2022-12-07T05:54:23;7.10;;;6.27;;
17207;SDS011;8720;48.488;9.202;2022-12-07T05:56:51;9.10;;;7.50;;
17207;SDS011;8720;48.488;9.202;2022-12-07T05:59:18;8.07;;;6.60;;
17207;SDS011;8720;48.488;9.202;2022-12-07T06:01:47;10.70;;;8.27;;
17207;SDS011;8720;48.488;9.202;2022-12-07T06:04:16;10.47;;;8.57;;
17207;SDS011;8720;48.488;9.202;2022-12-07T06:06:44;8.23;;;7.33;;
17207;SDS011;8720;48.488;9.202;2022-12-07T06:09:11;8.43;;;7.20;;
17207;SDS011;8720;48.488;9.202;2022-12-07T06:11:39;9.87;;;7.70;;
17207;SDS011;8720;48.488;9.202;2022-12-07T06:14:24;9.70;;;7.70;;
17207;SDS011;8720;48.488;9.202;2022-12-07T06:16:52;9.47;;;7.10;;
17207;SDS011;8720;48.488;9.202;2022-12-07T06:19:20;9.57;;;7.67;;
17207;SDS011;8720;48.488;9.202;2022-12-07T06:21:47;10.03;;;7.60;;
17207;SDS011;8720;48.488;9.202;2022-12-07T06:24:15;9.20;;;6.80;;
17207;SDS011;8720;48.488;9.202;2022-12-07T06:26:43;8.80;;;6.50;;
17207;SDS011;8720;48.488;9.202;2022-12-07T06:29:11;7.53;;;6.10;;
17207;SDS011;8720;48.488;9.202;2022-12-07T06:31:38;8.50;;;6.57;;
17207;SDS011;8720;48.488;9.202;2022-12-07T06:34:07;7.97;;;6.13;;
17207;SDS011;8720;48.488;9.202;2022-12-07T06:36:39;11.23;;;7.67;;
17207;SDS011;8720;48.488;9.202;2022-12-07T06:39:07;8.47;;;6.20;;
17207;SDS011;8720;48.488;9.202;2022-12-07T06:41:35;8.00;;;5.80;;
17207;SDS011;8720;48.488;9.202;2022-12-07T06:44:03;6.20;;;5.23;;
17207;SDS011;8720;48.488;9.202;2022-12-07T06:46:31;8.00;;;6.47;;
17207;SDS011;8720;48.488;9.202;2022-12-07T06:49:00;11.50;;;6.80;;
17207;SDS011;8720;48.488;9.202;2022-12-07T06:51:27;7.53;;;5.40;;
17207;SDS011;8720;48.488;9.202;2022-12-07T06:53:56;7.67;;;5.93;;
17207;SDS011;8720;48.488;9.202;2022-12-07T06:56:23;8.60;;;6.77;;
17207;SDS011;8720;48.488;9.202;2022-12-07T06:58:51;6.60;;;5.60;;
17207;SDS011;8720;48.488;9.202;2022-12-07T07:01:18;9.67;;;5.63;;
17207;SDS011;8720;48.488;9.202;2022-12-07T07:03:46;6.67;;;5.20;;
17207;SDS011;8720;48.488;9.202;2022-12-07T07:06:14;8.83;;;5.50;;
17207;SDS011;8720;48.488;9.202;2022-12-07T07:08:41;6.60;;;4.90;;
17207;SDS011;8720;48.488;9.202;2022-12-07T07:11:10;6.20;;;5.20;;
17207;SDS011;8720;48.488;9.202;2022-12-07T07:13:38;6.40;;;4.47;;
17207;SDS011;8720;48.488;9.202;2022-12-07T07:16:06;6.60;;;5.13;;
17207;SDS011;8720;48.488;9.202;2022-12-07T07:18:34;5.33;;;4.30;;
17207;SDS011;8720;48.488;9.202;2022-12-07T07:21:01;7.60;;;6.00;;
17207;SDS011;8720;48.488;9.202;2022-12-07T07:23:30;9.87;;;6.70;;
17207;SDS011;8720;48.488;9.202;2022-12-07T07:25:57;8.10;;;6.37;;
17207;SDS011;8720;48.488;9.202;2022-12-07T07:28:26;8.50;;;7.00;;
17207;SDS011;8720;48.488;9.202;2022-12-07T07:30:53;11.63;;;8.13;;
17207;SDS011;8720;48.488;9.202;2022-12-07T07:33:20;8.13;;;6.50;;
17207;SDS011;8720;48.488;9.202;2022-12-07T07:35:47;11.60;;;8.67;;
17207;SDS011;8720;48.488;9.202;2022-12-07T07:38:15;9.47;;;7.77;;
17207;SDS011;8720;48.488;9.202;2022-12-07T07:40:42;10.27;;;7.87;;
17207;SDS011;8720;48.488;9.202;2022-12-07T07:43:09;14.50;;;9.40;;
17207;SDS011;8720;48.488;9.202;2022-12-07T07:45:38;14.10;;;9.47;;
17207;SDS011;8720;48.488;9.202;2022-12-07T07:48:05;10.87;;;8.43;;
17207;SDS011;8720;48.488;9.202;2022-12-07T07:50:33;12.07;;;10.10;;
17207;SDS011;8720;48.488;9.202;2022-12-07T07:53:00;11.77;;;8.60;;
17207;SDS011;8720;48.488;9.202;2022-12-07T07:55:27;10.80;;;6.93;;
17207;SDS011;8720;48.488;9.202;2022-12-07T07:57:54;9.20;;;6.80;;
17207;SDS011;8720;48.488;9.202;2022-12-07T08:00:22;11.23;;;6.90;;
17207;SDS011;8720;48.488;9.202;2022-12-07T08:02:50;8.10;;;6.60;;
17207;SDS011;8720;48.488;9.202;2022-12-07T08:05:18;10.43;;;6.30;;
17207;SDS011;8720;48.488;9.202;2022-12-07T08:07:45;7.20;;;6.30;;
17207;SDS011;8720;48.488;9.202;2022-12-07T08:10:13;10.70;;;7.10;;
17207;SDS011;8720;48.488;9.202;2022-12-07T08:12:41;8.17;;;6.60;;
17207;SDS011;8720;48.488;9.202;2022-12-07T08:15:42;9.13;;;7.03;;
17207;SDS011;8720;48.488;9.202;2022-12-07T08:18:13;11.43;;;8.80;;
17207;SDS011;8720;48.488;9.202;2022-12-07T08:20:41;16.30;;;11.47;;
17207;SDS011;8720;48.488;9.202;2022-12-07T08:23:09;12.50;;;9.40;;
17207;SDS011;8720;48.488;9.202;2022-12-07T08:25:37;12.73;;;9.10;;
17207;SDS011;8720;48.488;9.202;2022-12-07T08:28:05;9.13;;;7.90;;
17207;SDS011;8720;48.488;9.202;2022-12-07T08:30:33;9.10;;;8.00;;
17207;SDS011;8720;48.488;9.202;2022-12-07T08:33:00;11.67;;;8.60;;
17207;SDS011;8720;48.488;9.202;2022-12-07T08:35:29;11.50;;;8.90;;
17207;SDS011;8720;48.488;9.202;2022-12-07T08:37:59;11.87;;;7.83;;
17207;SDS011;8720;48.488;9.202;2022-12-07T08:40:27;11.20;;;8.43;;
17207;SDS011;8720;48.488;9.202;2022-12-07T08:42:54;11.47;;;8.40;;
17207;SDS011;8720;48.488;9.202;2022-12-07T08:45:22;9.77;;;8.07;;
17207;SDS011;8720;48.488;9.202;2022-12-07T08:47:49;10.70;;;8.47;;
17207;SDS011;8720;48.488;9.202;2022-12-07T08:50:22;9.10;;;7.60;;
17207;SDS011;8720;48.488;9.202;2022-12-07T08:52:52;9.10;;;8.13;;
17207;SDS011;8720;48.488;9.202;2022-12-07T08:55:23;11.60;;;8.70;;
17207;SDS011;8720;48.488;9.202;2022-12-07T08:57:51;13.97;;;11.33;;
17207;SDS011;8720;48.488;9.202;2022-12-07T09:00:18;11.80;;;9.53;;
17207;SDS011;8720;48.488;9.202;2022-12-07T09:02:46;10.77;;;8.40;;
17207;SDS011;8720;48.488;9.202;2022-12-07T09:05:14;9.30;;;8.30;;
17207;SDS011;8720;48.488;9.202;2022-12-07T09:07:41;8.93;;;7.77;;
17207;SDS011;8720;48.488;9.202;2022-12-07T09:10:12;8.40;;;7.07;;
17207;SDS011;8720;48.488;9.202;2022-12-07T09:12:39;10.07;;;8.00;;
17207;SDS011;8720;48.488;9.202;2022-12-07T09:15:06;10.60;;;7.77;;
17207;SDS011;8720;48.488;9.202;2022-12-07T09:17:35;9.80;;;7.13;;
17207;SDS011;8720;48.488;9.202;2022-12-07T09:20:02;7.90;;;7.10;;
17207;SDS011;8720;48.488;9.202;2022-12-07T09:22:32;7.73;;;6.93;;
17207;SDS011;8720;48.488;9.202;2022-12-07T09:24:59;7.13;;;6.40;;
17207;SDS011;8720;48.488;9.202;2022-12-07T09:27:29;7.60;;;6.80;;
17207;SDS011;8720;48.488;9.202;2022-12-07T09:29:57;10.00;;;8.57;;
17207;SDS011;8720;48.488;9.202;2022-12-07T09:32:24;11.77;;;9.00;;
17207;SDS011;8720;48.488;9.202;2022-12-07T09:34:51;11.97;;;8.33;;
17207;SDS011;8720;48.488;9.202;2022-12-07T09:37:18;15.20;;;9.47;;
17207;SDS011;8720;48.488;9.202;2022-12-07T09:39:46;14.13;;;8.50;;
17207;SDS011;8720;48.488;9.202;2022-12-07T09:42:17;8.27;;;7.40;;
17207;SDS011;8720;48.488;9.202;2022-12-07T09:44:56;9.60;;;6.80;;
17207;SDS011;8720;48.488;9.202;2022-12-07T09:47:25;9.43;;;7.67;;
17207;SDS011;8720;48.488;9.202;2022-12-07T09:49:54;11.70;;;7.60;;
17207;SDS011;8720;48.488;9.202;2022-12-07T09:52:29;10.37;;;7.10;;
17207;SDS011;8720;48.488;9.202;2022-12-07T09:54:57;12.03;;;8.23;;
17207;SDS011;8720;48.488;9.202;2022-12-07T09:57:27;7.90;;;6.90;;
17207;SDS011;8720;48.488;9.202;2022-12-07T10:00:02;9.53;;;7.50;;
17207;SDS011;8720;48.488;9.202;2022-12-07T10:02:38;8.50;;;7.27;;
17207;SDS011;8720;48.488;9.202;2022-12-07T10:05:12;8.23;;;7.10;;
17207;SDS011;8720;48.488;9.202;2022-12-07T10:07:44;7.73;;;6.50;;
17207;SDS011;8720;48.488;9.202;2022-12-07T10:10:14;8.23;;;6.60;;
17207;SDS011;8720;48.488;9.202;2022-12-07T10:12:54;8.03;;;7.20;;
17207;SDS011;8720;48.488;9.202;2022-12-07T10:15:43;6.73;;;6.00;;
17207;SDS011;8720;48.488;9.202;2022-12-07T10:21:10;8.57;;;6.27;;
17207;SDS011;8720;48.488;9.202;2022-12-07T10:23:41;6.50;;;5.50;;
17207;SDS011;8720;48.488;9.202;2022-12-07T10:26:27;7.83;;;6.67;;
17207;SDS011;8720;48.488;9.202;2022-12-07T10:28:58;7.57;;;6.10;;
17207;SDS011;8720;48.488;9.202;2022-12-07T10:31:29;7.73;;;6.27;;
17207;SDS011;8720;48.488;9.202;2022-12-07T10:33:57;7.30;;;5.83;;
17207;SDS011;8720;48.488;9.202;2022-12-07T10:36:29;6.50;;;5.57;;
17207;SDS011;8720;48.488;9.202;2022-12-07T10:39:04;6.90;;;5.70;;
17207;SDS011;8720;48.488;9.202;2022-12-07T10:41:52;7.40;;;5.67;;
17207;SDS011;8720;48.488;9.202;2022-12-07T10:44:22;7.33;;;5.17;;
17207;SDS011;8720;48.488;9.202;2022-12-07T10:47:00;6.63;;;5.60;;
17207;SDS011;8720;48.488;9.202;2022-12-07T10:52:53;6.60;;;5.10;;
17207;SDS011;8720;48.488;9.202;2022-12-07T10:55:42;6.60;;;5.83;;
17207;SDS011;8720;48.488;9.202;2022-12-07T10:58:31;5.53;;;5.03;;
17207;SDS011;8720;48.488;9.202;2022-12-07T11:01:20;5.80;;;5.20;;
17207;SDS011;8720;48.488;9.202;2022-12-07T11:04:16;7.70;;;4.70;;
17207;SDS011;8720;48.488;9.202;2022-12-07T11:06:57;7.23;;;5.17;;
17207;SDS011;8720;48.488;9.202;2022-12-07T11:09:47;7.37;;;5.00;;
17207;SDS011;8720;48.488;9.202;2022-12-07T11:12:40;5.70;;;5.10;;
17207;SDS011;8720;48.488;9.202;2022-12-07T11:15:24;6.33;;;5.00;;
17207;SDS011;8720;48.488;9.202;2022-12-07T11:18:00;5.83;;;5.07;;
17207;SDS011;8720;48.488;9.202;2022-12-07T11:20:41;6.60;;;5.40;;
17207;SDS011;8720;48.488;9.202;2022-12-07T11:23:21;6.20;;;5.40;;
17207;SDS011;8720;48.488;9.202;2022-12-07T11:26:07;7.30;;;5.30;;
17207;SDS011;8720;48.488;9.202;2022-12-07T11:28:57;5.30;;;4.43;;
17207;SDS011;8720;48.488;9.202;2022-12-07T11:31:51;7.10;;;5.20;;
17207;SDS011;8720;48.488;9.202;2022-12-07T11:34:34;5.47;;;4.83;;
17207;SDS011;8720;48.488;9.202;2022-12-07T11:37:14;4.87;;;4.37;;
17207;SDS011;8720;48.488;9.202;2022-12-07T11:39:49;5.83;;;4.63;;
17207;SDS011;8720;48.488;9.202;2022-12-07T11:42:22;7.10;;;5.97;;
17207;SDS011;8720;48.488;9.202;2022-12-07T11:44:53;8.70;;;5.43;;
17207;SDS011;8720;48.488;9.202;2022-12-07T11:47:28;5.13;;;4.63;;
17207;SDS011;8720;48.488;9.202;2022-12-07T11:50:08;5.70;;;4.73;;
17207;SDS011;8720;48.488;9.202;2022-12-07T11:52:53;9.50;;;5.00;;
17207;SDS011;8720;48.488;9.202;2022-12-07T11:55:27;5.77;;;5.00;;
17207;SDS011;8720;48.488;9.202;2022-12-07T11:58:20;5.73;;;4.80;;
17207;SDS011;8720;48.488;9.202;2022-12-07T12:01:08;5.53;;;4.90;;
17207;SDS011;8720;48.488;9.202;2022-12-07T12:03:53;6.93;;;5.00;;
17207;SDS011;8720;48.488;9.202;2022-12-07T12:06:27;6.20;;;4.70;;
17207;SDS011;8720;48.488;9.202;2022-12-07T12:08:57;9.33;;;5.33;;
17207;SDS011;8720;48.488;9.202;2022-12-07T12:11:38;5.87;;;4.63;;
17207;SDS011;8720;48.488;9.202;2022-12-07T12:14:53;6.17;;;4.97;;
17207;SDS011;8720;48.488;9.202;2022-12-07T12:17:39;5.07;;;4.47;;
17207;SDS011;8720;48.488;9.202;2022-12-07T12:20:39;6.40;;;5.10;;
17207;SDS011;8720;48.488;9.202;2022-12-07T12:23:15;5.33;;;4.83;;
17207;SDS011;8720;48.488;9.202;2022-12-07T12:25:49;5.07;;;4.13;;
17207;SDS011;8720;48.488;9.202;2022-12-07T12:28:21;5.37;;;4.47;;
17207;SDS011;8720;48.488;9.202;2022-12-07T12:31:05;4.40;;;3.67;;
17207;SDS011;8720;48.488;9.202;2022-12-07T12:33:38;7.03;;;4.40;;
17207;SDS011;8720;48.488;9.202;2022-12-07T12:36:19;5.00;;;4.33;;
17207;SDS011;8720;48.488;9.202;2022-12-07T12:38:52;5.37;;;4.07;;
17207;SDS011;8720;48.488;9.202;2022-12-07T12:41:53;4.80;;;3.80;;
17207;SDS011;8720;48.488;9.202;2022-12-07T12:54:04;6.80;;;3.93;;
17207;SDS011;8720;48.488;9.202;2022-12-07T12:56:43;4.60;;;3.73;;
17207;SDS011;8720;48.488;9.202;2022-12-07T12:59:25;5.90;;;5.07;;
17207;SDS011;8720;48.488;9.202;2022-12-07T13:01:56;6.03;;;4.70;;
17207;SDS011;8720;48.488;9.202;2022-12-07T13:04:49;6.20;;;4.80;;
17207;SDS011;8720;48.488;9.202;2022-12-07T13:10:34;6.03;;;4.63;;
17207;SDS011;8720;48.488;9.202;2022-12-07T13:22:43;5.63;;;4.53;;
17207;SDS011;8720;48.488;9.202;2022-12-07T13:25:22;6.00;;;4.77;;
17207;SDS011;8720;48.488;9.202;2022-12-07T13:28:07;5.77;;;4.50;;
17207;SDS011;8720;48.488;9.202;2022-12-07T13:30:45;9.03;;;4.77;;
17207;SDS011;8720;48.488;9.202;2022-12-07T13:33:41;6.30;;;4.67;;
17207;SDS011;8720;48.488;9.202;2022-12-07T13:36:14;8.57;;;5.57;;
17207;SDS011;8720;48.488;9.202;2022-12-07T13:38:52;4.17;;;3.77;;
17207;SDS011;8720;48.488;9.202;2022-12-07T13:41:23;5.23;;;4.03;;
17207;SDS011;8720;48.488;9.202;2022-12-07T13:43:54;5.00;;;3.97;;
17207;SDS011;8720;48.488;9.202;2022-12-07T13:46:34;8.60;;;4.50;;
17207;SDS011;8720;48.488;9.202;2022-12-07T13:49:17;5.80;;;4.17;;
17207;SDS011;8720;48.488;9.202;2022-12-07T13:51:48;4.97;;;4.10;;
17207;SDS011;8720;48.488;9.202;2022-12-07T13:54:16;7.10;;;4.40;;
17207;SDS011;8720;48.488;9.202;2022-12-07T13:56:47;4.90;;;4.50;;
17207;SDS011;8720;48.488;9.202;2022-12-07T13:59:18;7.67;;;4.70;;
17207;SDS011;8720;48.488;9.202;2022-12-07T14:01:49;6.23;;;4.83;;
17207;SDS011;8720;48.488;9.202;2022-12-07T14:04:19;6.33;;;5.07;;
17207;SDS011;8720;48.488;9.202;2022-12-07T14:06:59;8.30;;;6.20;;
17207;SDS011;8720;48.488;9.202;2022-12-07T14:09:52;5.37;;;4.87;;
17207;SDS011;8720;48.488;9.202;2022-12-07T14:12:25;5.80;;;4.90;;
17207;SDS011;8720;48.488;9.202;2022-12-07T14:14:55;7.43;;;6.30;;
17207;SDS011;8720;48.488;9.202;2022-12-07T14:17:27;5.50;;;4.57;;
17207;SDS011;8720;48.488;9.202;2022-12-07T14:19:55;8.30;;;5.50;;
17207;SDS011;8720;48.488;9.202;2022-12-07T14:22:25;6.47;;;4.77;;
17207;SDS011;8720;48.488;9.202;2022-12-07T14:25:00;7.40;;;4.60;;
17207;SDS011;8720;48.488;9.202;2022-12-07T14:27:47;5.40;;;4.57;;
17207;SDS011;8720;48.488;9.202;2022-12-07T14:30:21;6.80;;;4.63;;
17207;SDS011;8720;48.488;9.202;2022-12-07T14:32:52;8.03;;;5.00;;
17207;SDS011;8720;48.488;9.202;2022-12-07T14:35:24;6.03;;;4.83;;
17207;SDS011;8720;48.488;9.202;2022-12-07T14:37:52;8.27;;;5.47;;
17207;SDS011;8720;48.488;9.202;2022-12-07T14:40:20;7.13;;;5.40;;
17207;SDS011;8720;48.488;9.202;2022-12-07T14:42:50;7.63;;;4.97;;
17207;SDS011;8720;48.488;9.202;2022-12-07T14:45:22;6.70;;;4.67;;
17207;SDS011;8720;48.488;9.202;2022-12-07T14:47:51;7.03;;;5.27;;
17207;SDS011;8720;48.488;9.202;2022-12-07T14:50:19;8.50;;;5.50;;
17207;SDS011;8720;48.488;9.202;2022-12-07T14:52:48;6.23;;;5.10;;
17207;SDS011;8720;48.488;9.202;2022-12-07T14:55:23;6.33;;;4.97;;
17207;SDS011;8720;48.488;9.202;2022-12-07T14:57:53;7.67;;;4.87;;
17207;SDS011;8720;48.488;9.202;2022-12-07T15:00:21;5.47;;;4.90;;
17207;SDS011;8720;48.488;9.202;2022-12-07T15:02:53;6.37;;;4.53;;
17207;SDS011;8720;48.488;9.202;2022-12-07T15:05:21;6.63;;;4.70;;
17207;SDS011;8720;48.488;9.202;2022-12-07T15:07:49;6.13;;;4.70;;
17207;SDS011;8720;48.488;9.202;2022-12-07T15:10:19;6.63;;;5.23;;
17207;SDS011;8720;48.488;9.202;2022-12-07T15:12:48;5.70;;;4.53;;
17207;SDS011;8720;48.488;9.202;2022-12-07T15:15:16;6.93;;;5.63;;
17207;SDS011;8720;48.488;9.202;2022-12-07T15:17:43;7.33;;;5.93;;
17207;SDS011;8720;48.488;9.202;2022-12-07T15:20:13;9.57;;;5.60;;
17207;SDS011;8720;48.488;9.202;2022-12-07T15:22:42;8.30;;;5.40;;
17207;SDS011;8720;48.488;9.202;2022-12-07T15:25:12;8.93;;;6.20;;
17207;SDS011;8720;48.488;9.202;2022-12-07T15:27:40;8.50;;;6.80;;
17207;SDS011;8720;48.488;9.202;2022-12-07T15:30:08;8.50;;;5.73;;
17207;SDS011;8720;48.488;9.202;2022-12-07T15:32:35;8.13;;;6.77;;
17207;SDS011;8720;48.488;9.202;2022-12-07T15:35:03;11.87;;;8.70;;
17207;SDS011;8720;48.488;9.202;2022-12-07T15:37:32;18.80;;;12.90;;
17207;SDS011;8720;48.488;9.202;2022-12-07T15:40:00;15.43;;;12.17;;
17207;SDS011;8720;48.488;9.202;2022-12-07T15:42:27;13.90;;;10.73;;
17207;SDS011;8720;48.488;9.202;2022-12-07T15:44:54;14.50;;;9.47;;
17207;SDS011;8720;48.488;9.202;2022-12-07T15:47:29;11.70;;;8.77;;
17207;SDS011;8720;48.488;9.202;2022-12-07T15:49:57;9.00;;;8.07;;
17207;SDS011;8720;48.488;9.202;2022-12-07T15:52:25;8.50;;;6.88;;
17207;SDS011;8720;48.488;9.202;2022-12-07T15:54:53;8.00;;;7.03;;
17207;SDS011;8720;48.488;9.202;2022-12-07T15:57:21;9.00;;;6.93;;
17207;SDS011;8720;48.488;9.202;2022-12-07T15:59:48;9.23;;;6.23;;
17207;SDS011;8720;48.488;9.202;2022-12-07T16:02:16;7.87;;;6.40;;